Basalt, Idaho
Current Conditions -  °F | °C
As of 5:53 PM on Tuesday 21 Oct 2014 (Local Time) from KIDA Reporting Station
Scattered Clouds Scattered Clouds  
Wind Chill: 50°   Ceiling: Unl
Heat Index: 50°   Visibility: 10mi
Dew Point: 35°   Wind: 22mph
Humidity: 57%   Direction: 230°SW
Pressure: 30.02"   Gusts: 29mph
Location:  43.32°N, 112.16°W
Report Text: KIDA 212353Z 23019G25KT 10SM SCT045 10/02 A3002 RMK AO2 PK WND 21027/2316 SLP146 T01000017 10122 20078 51006
Loading
Personal Weather Stations






























Interactive Weather Map
Tropical Storm Tracking
New forecast layout! Learn more

10-Day Weather Forecast

Advertisements
Track Severe Weather on mobile